KPOC/POC METAR and TAF weather

Enter ICAO airport designator
Station Type Date Time Source
KPOC METAR 2021/09/24 03:47 UTC NOAA

KPOC 240347Z 00000KT 10SM CLR 20/13 A2993 RMK LAST


Station Type Date Time Source
KPOC Decoded METAR 2021/09/24 03:47 UTC NOAA

La Verne / Brackett, CA, United States (KPOC) 34-06N 117-47W
Sep 23, 2021 - 11:47 PM EDT / 2021.09.24 0347 UTC
Wind: Calm:0
Visibility: 10 mile(s):0
Sky conditions: clear
Temperature: 68 F (20 C)
Dew Point: 55 F (13 C)
Relative Humidity: 64%
Pressure (altimeter): 29.93 in. Hg (1013 hPa)
ob: KPOC 240347Z 00000KT 10SM CLR 20/13 A2993 RMK LAST
cycle: 4

Station Type Date Time Source
KPOC TAF UTC NOAA

Error!

Example: see airport list